createdAt,value
2017-11-11T00:00:02.144Z,81.30
2017-11-11T00:02:28.500Z,81.60
2017-11-11T00:04:55.627Z,81.80
2017-11-11T00:07:21.964Z,81.30
2017-11-11T00:09:50.551Z,81.60
2017-11-11T00:12:16.983Z,81.90
2017-11-11T00:14:43.797Z,81.30
2017-11-11T00:17:11.636Z,81.50
2017-11-11T00:19:37.843Z,81.80
2017-11-11T00:22:04.414Z,81.60
2017-11-11T00:24:31.820Z,81.60
2017-11-11T00:26:58.024Z,81.50
2017-11-11T00:29:25.081Z,81.70
2017-11-11T00:31:51.276Z,81.70
2017-11-11T00:34:17.464Z,82.00
2017-11-11T00:36:43.691Z,81.90
2017-11-11T00:39:09.885Z,81.80
2017-11-11T00:41:36.132Z,81.90
2017-11-11T00:44:02.307Z,81.80
2017-11-11T00:46:28.570Z,81.90
2017-11-11T00:48:54.776Z,81.80
2017-11-11T00:51:21.014Z,81.80
2017-11-11T00:53:47.197Z,81.80
2017-11-11T00:56:13.751Z,81.60
2017-11-11T00:58:39.907Z,81.80
2017-11-11T01:01:06.119Z,82.40
2017-11-11T01:03:32.759Z,82.00
2017-11-11T01:05:59.330Z,81.80
2017-11-11T01:08:25.549Z,81.60
2017-11-11T01:10:52.172Z,81.70
2017-11-11T01:13:18.398Z,82.10
2017-11-11T01:15:44.631Z,82.20
2017-11-11T01:18:10.916Z,82.00
2017-11-11T01:20:37.151Z,81.80
2017-11-11T01:23:03.370Z,81.70
2017-11-11T01:25:29.556Z,82.00
2017-11-11T01:27:56.544Z,82.00
2017-11-11T01:30:22.759Z,82.20
2017-11-11T01:32:48.983Z,82.50
2017-11-11T01:35:15.162Z,82.80
2017-11-11T01:37:42.113Z,83.00
2017-11-11T01:40:08.323Z,83.00
2017-11-11T01:42:34.570Z,83.00
2017-11-11T01:45:00.782Z,83.00
2017-11-11T01:47:27.018Z,83.30
2017-11-11T01:49:53.325Z,83.30
2017-11-11T01:52:19.954Z,84.70
2017-11-11T01:54:46.183Z,83.10
2017-11-11T01:57:13.116Z,82.90
2017-11-11T01:59:39.555Z,83.00
2017-11-11T02:02:05.805Z,83.20
2017-11-11T02:04:33.052Z,84.20
2017-11-11T02:06:59.257Z,83.90
2017-11-11T02:09:25.527Z,84.00
2017-11-11T02:11:52.458Z,83.70
2017-11-11T02:14:19.684Z,84.00
2017-11-11T02:16:46.657Z,84.70
2017-11-11T02:19:12.917Z,84.00
2017-11-11T03:05:17.432Z,83.90
2017-11-11T03:07:43.614Z,83.60
2017-11-11T03:10:09.847Z,83.80
2017-11-11T03:12:36.373Z,83.60
2017-11-11T03:15:03.834Z,84.70
2017-11-11T03:17:30.044Z,84.30
2017-11-11T03:19:56.250Z,84.30
2017-11-11T03:22:22.746Z,84.20
2017-11-11T03:24:48.979Z,84.00
2017-11-11T03:27:16.507Z,83.90
2017-11-11T03:29:42.682Z,83.60
2017-11-11T03:32:08.926Z,84.10
2017-11-11T03:34:35.102Z,83.80
2017-11-11T03:37:01.321Z,83.90
2017-11-11T03:39:27.871Z,83.90
2017-11-11T03:41:54.277Z,84.20
2017-11-11T03:44:20.512Z,83.90
2017-11-11T03:49:36.222Z,83.90
2017-11-11T03:52:02.418Z,83.70
2017-11-11T03:54:28.638Z,84.00
2017-11-11T03:56:54.985Z,83.90
2017-11-11T03:59:21.278Z,83.90
2017-11-11T04:01:47.440Z,83.80
2017-11-11T04:04:13.647Z,84.10
2017-11-11T04:06:39.838Z,83.50
2017-11-11T04:09:06.234Z,83.40
2017-11-11T04:11:32.489Z,83.70
2017-11-11T04:13:59.261Z,83.40
2017-11-11T04:16:25.459Z,84.00
2017-11-11T04:18:51.672Z,84.00
2017-11-11T04:21:18.358Z,83.80
2017-11-11T04:23:44.586Z,84.00
2017-11-11T04:26:10.788Z,83.80
2017-11-11T04:28:37.365Z,83.70
2017-11-11T04:31:04.103Z,83.90
2017-11-11T04:33:30.305Z,84.30
2017-11-11T04:35:56.507Z,84.60
2017-11-11T04:38:22.690Z,84.50
2017-11-11T04:40:48.914Z,84.70
2017-11-11T04:43:16.754Z,84.60
2017-11-11T04:45:43.111Z,84.80
2017-11-11T04:48:09.716Z,85.30
2017-11-11T04:50:36.010Z,85.50
2017-11-11T04:53:02.163Z,85.30
2017-11-11T04:55:29.635Z,85.00
2017-11-11T04:57:55.822Z,84.90
2017-11-11T05:00:22.045Z,84.90
2017-11-11T05:02:49.436Z,85.40
2017-11-11T05:05:15.708Z,85.00
2017-11-11T05:07:41.908Z,85.10
2017-11-11T05:10:08.105Z,85.50
2017-11-11T05:12:34.387Z,85.30
2017-11-11T05:15:01.503Z,85.30
2017-11-11T05:17:27.714Z,85.00
2017-11-11T05:19:55.292Z,84.90
2017-11-11T05:22:21.913Z,84.90
2017-11-11T05:24:48.120Z,84.90
2017-11-11T05:27:14.764Z,84.90
2017-11-11T05:29:41.004Z,84.90
2017-11-11T05:32:07.981Z,85.50
2017-11-11T05:34:34.179Z,85.30
2017-11-11T05:37:00.408Z,84.90
2017-11-11T05:39:27.350Z,85.00
2017-11-11T05:41:53.564Z,84.80
2017-11-11T05:44:19.764Z,84.70
2017-11-11T05:46:46.045Z,85.00
2017-11-11T05:49:13.254Z,85.10
2017-11-11T05:51:39.483Z,85.10
2017-11-11T05:54:06.311Z,85.20
2017-11-11T05:56:32.502Z,85.70
2017-11-11T05:58:59.629Z,85.70
2017-11-11T06:01:26.253Z,85.30
2017-11-11T06:13:32.864Z,85.70
2017-11-11T06:15:59.052Z,85.70
2017-11-11T06:18:25.208Z,85.80
2017-11-11T06:20:51.979Z,85.80
2017-11-11T06:23:20.186Z,85.80
2017-11-11T06:25:47.341Z,85.80
2017-11-11T06:28:13.647Z,85.80
2017-11-11T06:30:39.859Z,85.80
2017-11-11T06:33:06.061Z,85.80
2017-11-11T06:35:32.287Z,85.90
2017-11-11T06:37:58.852Z,86.10
2017-11-11T06:40:25.053Z,85.70
2017-11-11T06:42:51.844Z,85.90
2017-11-11T06:45:18.027Z,86.00
2017-11-11T06:47:45.124Z,85.70
2017-11-11T06:50:11.539Z,85.50
2017-11-11T06:52:37.936Z,86.00
2017-11-11T06:55:04.157Z,86.00
2017-11-11T06:57:30.693Z,86.00
2017-11-11T06:59:58.729Z,86.00
2017-11-11T07:02:27.162Z,85.90
2017-11-11T07:04:53.459Z,86.00
2017-11-11T07:07:19.690Z,86.00
2017-11-11T07:09:46.726Z,86.00
2017-11-11T07:12:12.923Z,86.10
2017-11-11T07:14:39.324Z,86.10
2017-11-11T07:17:06.665Z,86.10
2017-11-11T07:19:33.028Z,85.90
2017-11-11T07:22:00.647Z,85.40
2017-11-11T07:24:27.851Z,85.60
2017-11-11T07:26:54.073Z,85.50
2017-11-11T07:29:20.317Z,85.40
2017-11-11T07:31:48.114Z,85.50
2017-11-11T07:34:14.714Z,85.20
2017-11-11T07:36:41.444Z,84.50
2017-11-11T07:39:07.765Z,84.90
2017-11-11T07:41:34.103Z,84.80
2017-11-11T07:44:01.774Z,85.00
2017-11-11T07:46:29.120Z,85.20
2017-11-11T07:48:56.655Z,85.30
2017-11-11T07:51:26.019Z,85.10
2017-11-11T07:53:53.454Z,85.10
2017-11-11T07:56:19.953Z,85.30
2017-11-11T07:58:46.500Z,85.70
2017-11-11T08:01:12.693Z,86.10
2017-11-11T08:03:38.916Z,86.30
2017-11-11T08:06:05.129Z,86.00
2017-11-11T08:08:32.008Z,86.50
2017-11-11T08:10:59.081Z,87.00
2017-11-11T08:13:25.333Z,85.80
2017-11-11T08:15:51.630Z,86.10
2017-11-11T08:18:18.271Z,85.80
2017-11-11T08:20:44.559Z,86.60
2017-11-11T08:23:12.061Z,86.30
2017-11-11T08:25:39.624Z,86.30
2017-11-11T08:28:07.205Z,85.60
2017-11-11T08:30:33.443Z,86.30
2017-11-11T08:32:59.707Z,86.70
2017-11-11T08:35:25.868Z,87.10
2017-11-11T08:37:52.204Z,87.60
2017-11-11T08:40:19.821Z,87.70
2017-11-11T08:42:47.356Z,87.50
2017-11-11T08:45:13.552Z,88.00
2017-11-11T08:47:40.798Z,88.60
2017-11-11T08:50:07.940Z,88.60
2017-11-11T08:52:34.563Z,88.30
2017-11-11T08:55:00.836Z,88.20
2017-11-11T08:57:28.517Z,88.20
2017-11-11T08:59:54.872Z,88.10
2017-11-11T09:02:21.393Z,88.10
2017-11-11T09:04:47.993Z,88.10
2017-11-11T09:07:14.570Z,88.20
2017-11-11T09:09:40.763Z,88.10
2017-11-11T09:12:07.326Z,87.80
2017-11-11T09:14:33.634Z,88.00
2017-11-11T09:16:59.852Z,88.20
2017-11-11T09:19:26.076Z,88.10
2017-11-11T09:21:53.779Z,88.20
2017-11-11T09:24:19.974Z,87.90
2017-11-11T09:26:47.203Z,88.20
2017-11-11T09:29:13.439Z,88.70
2017-11-11T09:31:40.479Z,88.50
2017-11-11T09:34:06.678Z,88.50
2017-11-11T09:36:32.945Z,88.30
2017-11-11T09:38:59.135Z,88.90
2017-11-11T09:41:25.336Z,89.20
2017-11-11T09:43:52.290Z,89.70
2017-11-11T09:46:18.911Z,88.90
2017-11-11T09:48:47.119Z,89.10
2017-11-11T09:51:13.353Z,89.40
2017-11-11T09:53:39.592Z,89.70
2017-11-11T09:56:05.991Z,89.40
2017-11-11T09:58:32.323Z,89.50
2017-11-11T10:00:59.373Z,89.70
2017-11-11T10:03:26.439Z,90.00
2017-11-11T10:15:32.761Z,90.00
2017-11-11T10:17:59.255Z,90.00
2017-11-11T10:20:25.455Z,90.10
2017-11-11T10:22:51.761Z,90.10
2017-11-11T10:25:18.632Z,90.20
2017-11-11T10:27:44.905Z,89.60
2017-11-11T10:30:11.204Z,90.10
2017-11-11T10:32:37.415Z,90.20
2017-11-11T10:35:03.676Z,89.80
2017-11-11T10:37:30.052Z,90.30
2017-11-11T10:39:56.281Z,90.30
2017-11-11T10:42:22.557Z,90.20
2017-11-11T10:44:48.796Z,89.90
2017-11-11T10:47:15.290Z,90.00
2017-11-11T10:49:41.963Z,89.50
2017-11-11T10:52:08.663Z,89.40
2017-11-11T10:54:35.544Z,89.30
2017-11-11T10:57:02.207Z,89.30
2017-11-11T10:59:28.409Z,89.10
2017-11-11T11:01:54.950Z,89.20
2017-11-11T11:04:21.200Z,89.20
2017-11-11T11:06:47.573Z,88.60
2017-11-11T11:09:14.582Z,89.40
2017-11-11T11:11:40.785Z,89.10
2017-11-11T11:14:08.059Z,89.50
2017-11-11T11:16:34.509Z,88.90
2017-11-11T11:19:00.700Z,89.30
2017-11-11T11:21:26.953Z,89.40
2017-11-11T11:23:53.364Z,89.00
2017-11-11T11:26:21.602Z,89.40
2017-11-11T11:28:47.845Z,90.00
2017-11-11T11:31:14.081Z,90.20
2017-11-11T11:33:40.289Z,89.00
2017-11-11T11:36:06.535Z,89.80
2017-11-11T11:38:33.816Z,88.60
2017-11-11T11:41:00.370Z,88.80
2017-11-11T11:43:26.663Z,88.30
2017-11-11T11:45:54.204Z,88.00
2017-11-11T11:48:21.164Z,88.30
2017-11-11T11:50:47.435Z,88.10
2017-11-11T11:53:15.333Z,88.20
2017-11-11T11:55:41.564Z,87.50
2017-11-11T11:58:07.774Z,88.00
2017-11-11T12:00:33.983Z,88.50
2017-11-11T12:03:00.676Z,88.80
2017-11-11T12:05:26.908Z,88.40
2017-11-11T12:07:54.148Z,88.90
2017-11-11T12:10:20.356Z,88.70
2017-11-11T12:12:46.591Z,89.10
2017-11-11T12:15:12.796Z,89.10
2017-11-11T12:17:39.036Z,89.00
2017-11-11T12:20:05.268Z,89.00
2017-11-11T12:22:32.439Z,88.70
2017-11-11T12:25:01.792Z,89.40
2017-11-11T12:27:28.013Z,88.50
2017-11-11T12:29:54.203Z,88.10
2017-11-11T12:32:20.414Z,88.10
2017-11-11T12:34:46.641Z,88.20
2017-11-11T12:37:12.937Z,88.40
2017-11-11T12:39:39.202Z,87.80
2017-11-11T12:42:05.421Z,88.20
2017-11-11T12:44:32.375Z,88.20
2017-11-11T12:46:58.606Z,88.30
2017-11-11T12:49:24.846Z,89.50
2017-11-11T12:51:51.721Z,89.50
2017-11-11T12:54:18.201Z,89.90
2017-11-11T12:56:44.437Z,90.00
2017-11-11T12:59:10.729Z,90.00
2017-11-11T13:01:36.970Z,90.10
2017-11-11T13:04:03.191Z,90.10
2017-11-11T13:06:29.903Z,90.40
2017-11-11T13:08:56.120Z,90.40
2017-11-11T13:11:22.483Z,90.50
2017-11-11T13:13:48.695Z,90.40
2017-11-11T13:16:16.232Z,90.50
2017-11-11T13:18:43.205Z,91.10
2017-11-11T13:21:09.436Z,90.60
2017-11-11T13:23:35.669Z,90.60
2017-11-11T13:26:01.978Z,90.70
2017-11-11T13:28:28.372Z,90.70
2017-11-11T13:30:55.106Z,90.90
2017-11-11T13:33:21.374Z,91.00
2017-11-11T13:35:48.168Z,90.80
2017-11-11T13:38:14.396Z,91.30
2017-11-11T13:40:40.900Z,90.80
2017-11-11T13:43:07.144Z,90.40
2017-11-11T13:45:33.492Z,90.30
2017-11-11T13:48:00.114Z,90.20
2017-11-11T13:50:27.146Z,90.50
2017-11-11T13:52:53.639Z,90.70
2017-11-11T13:55:21.052Z,90.50
2017-11-11T13:57:48.378Z,90.40
2017-11-11T14:00:15.367Z,90.30
2017-11-11T14:02:42.490Z,90.30
2017-11-11T14:05:08.693Z,90.40
2017-11-11T14:07:35.344Z,90.60
2017-11-11T14:10:01.992Z,90.30
2017-11-11T14:12:28.511Z,90.30
2017-11-11T14:14:55.314Z,90.50
2017-11-11T14:17:21.534Z,90.80
2017-11-11T14:19:47.764Z,91.00
2017-11-11T14:22:15.332Z,91.70
2017-11-11T14:24:42.155Z,91.20
2017-11-11T14:27:10.477Z,91.40
2017-11-11T14:29:37.562Z,91.40
2017-11-11T14:32:03.875Z,91.40
2017-11-11T14:34:30.096Z,91.30
2017-11-11T14:36:56.373Z,91.40
2017-11-11T14:39:22.578Z,91.20
2017-11-11T14:41:48.890Z,91.40
2017-11-11T14:44:15.128Z,91.60
2017-11-11T14:46:42.257Z,91.80
2017-11-11T14:49:08.540Z,91.70
2017-11-11T14:51:34.821Z,91.30
2017-11-11T14:54:01.120Z,91.40
2017-11-11T14:56:27.344Z,91.80
2017-11-11T14:58:53.651Z,92.00
2017-11-11T15:01:20.629Z,91.90
2017-11-11T15:03:46.890Z,91.70
2017-11-11T15:06:13.484Z,91.60
2017-11-11T15:08:40.163Z,91.80
2017-11-11T15:11:06.724Z,92.20
2017-11-11T15:13:33.902Z,92.10
2017-11-11T15:16:00.162Z,92.00
2017-11-11T15:18:26.389Z,92.20
2017-11-11T15:20:55.550Z,92.10
2017-11-11T15:23:21.971Z,92.20
2017-11-11T15:25:49.012Z,92.00
2017-11-11T15:28:15.200Z,92.20
2017-11-11T15:30:41.515Z,92.30
2017-11-11T15:33:08.720Z,92.30
2017-11-11T15:45:15.145Z,92.40
2017-11-11T15:47:41.559Z,92.40
2017-11-11T16:14:36.286Z,92.50
2017-11-11T16:17:03.348Z,92.70
2017-11-11T16:19:29.951Z,92.40
2017-11-11T16:31:46.698Z,92.50
2017-11-11T16:34:13.869Z,92.50
2017-11-11T16:36:43.866Z,92.70
2017-11-11T16:39:11.048Z,92.70
2017-11-11T16:41:38.268Z,92.50
2017-11-11T16:44:05.577Z,92.60
2017-11-11T16:46:31.868Z,92.70
2017-11-11T16:48:58.117Z,93.00
2017-11-11T16:51:24.373Z,92.50
2017-11-11T16:53:51.426Z,93.80
2017-11-11T16:56:18.521Z,93.50
2017-11-11T16:58:44.739Z,93.30
2017-11-11T17:01:11.920Z,93.40
2017-11-11T17:03:38.960Z,93.10
2017-11-11T17:06:05.264Z,92.10
2017-11-11T17:08:32.270Z,92.30
2017-11-11T17:10:58.516Z,91.90
2017-11-11T17:13:25.572Z,91.60
2017-11-11T17:15:53.556Z,91.50
2017-11-11T17:18:20.709Z,91.40
2017-11-11T17:20:47.113Z,91.10
2017-11-11T17:23:14.936Z,91.10
2017-11-11T17:25:43.276Z,91.10
2017-11-11T17:28:09.522Z,91.40
2017-11-11T17:30:36.766Z,93.20
2017-11-11T17:33:03.611Z,92.80
2017-11-11T17:35:30.440Z,92.70
2017-11-11T17:37:57.607Z,93.90
2017-11-11T17:40:23.877Z,93.70
2017-11-11T17:42:53.231Z,89.70
2017-11-11T17:45:20.374Z,88.70
2017-11-11T17:47:47.262Z,88.00
2017-11-11T17:50:14.977Z,87.60
2017-11-11T17:52:41.651Z,85.60
2017-11-11T17:55:09.179Z,85.90
2017-11-11T17:57:36.571Z,86.60
2017-11-11T18:00:03.108Z,88.30
2017-11-11T18:02:30.917Z,88.10
2017-11-11T18:04:57.932Z,89.10
2017-11-11T18:07:25.592Z,87.90
2017-11-11T18:09:51.940Z,88.10
2017-11-11T18:12:19.238Z,87.90
2017-11-11T18:14:46.320Z,88.40
2017-11-11T18:17:12.618Z,88.20
2017-11-11T18:29:25.487Z,88.50
2017-11-11T18:32:09.570Z,89.20
2017-11-11T18:34:35.913Z,89.10
2017-11-11T18:37:03.683Z,88.20
2017-11-11T18:39:30.012Z,88.20
2017-11-11T18:41:56.556Z,88.20
2017-11-11T18:44:23.062Z,88.30
2017-11-11T18:46:49.492Z,88.20
2017-11-11T18:49:15.756Z,87.80
2017-11-11T18:51:41.972Z,88.30
2017-11-11T18:54:08.238Z,88.20
2017-11-11T18:56:35.320Z,88.60
2017-11-11T18:59:02.358Z,88.00
2017-11-11T19:01:28.663Z,87.00
2017-11-11T19:03:56.860Z,87.30
2017-11-11T19:06:24.023Z,87.80
2017-11-11T19:08:50.986Z,88.80
2017-11-11T19:11:18.076Z,88.80
2017-11-11T19:13:44.335Z,88.10
2017-11-11T19:16:10.671Z,88.10
2017-11-11T19:18:37.716Z,88.70
2017-11-11T19:21:04.738Z,89.30
2017-11-11T19:23:32.036Z,88.60
2017-11-11T19:25:59.182Z,89.10
2017-11-11T19:28:26.242Z,88.70
2017-11-11T19:30:53.120Z,88.10
2017-11-11T19:33:20.278Z,88.10
2017-11-11T19:35:46.935Z,88.20
2017-11-11T19:38:13.952Z,88.10
2017-11-11T19:40:40.448Z,88.10
2017-11-11T19:43:07.467Z,88.60
2017-11-11T19:45:33.842Z,88.00
2017-11-11T19:48:00.094Z,88.00
2017-11-11T20:00:11.372Z,88.80
2017-11-11T20:02:37.920Z,88.20
2017-11-11T20:05:04.902Z,88.60
2017-11-11T20:07:31.558Z,89.00
2017-11-11T20:09:58.568Z,88.80
2017-11-11T20:12:25.397Z,89.10
2017-11-11T20:14:51.657Z,88.30
2017-11-11T20:17:18.865Z,86.80
2017-11-11T20:19:45.419Z,86.80
2017-11-11T20:22:12.258Z,87.20
2017-11-11T20:24:40.301Z,87.10
2017-11-11T20:27:06.619Z,85.90
2017-11-11T20:29:32.906Z,86.00
2017-11-11T20:32:01.896Z,86.20
2017-11-11T20:34:29.279Z,85.70
2017-11-11T20:36:57.771Z,86.40
2017-11-11T20:39:24.930Z,86.00
2017-11-11T20:41:51.212Z,86.00
2017-11-11T20:44:18.046Z,86.30
2017-11-11T20:46:44.296Z,86.80
2017-11-11T20:49:11.391Z,87.60
2017-11-11T21:01:22.705Z,86.00
2017-11-11T21:03:49.034Z,86.60
2017-11-11T21:06:16.523Z,86.30
2017-11-11T21:08:43.780Z,86.10
2017-11-11T21:11:10.029Z,85.20
2017-11-11T21:13:36.396Z,85.50
2017-11-11T21:16:02.694Z,86.00
2017-11-11T21:18:31.211Z,86.30
2017-11-11T21:20:59.024Z,86.20
2017-11-11T21:23:25.295Z,85.80
2017-11-11T21:25:51.593Z,85.60
2017-11-11T21:28:18.161Z,86.10
2017-11-11T21:30:47.658Z,86.80
2017-11-11T21:33:16.151Z,86.80
2017-11-11T21:35:43.571Z,86.80
2017-11-11T21:38:09.931Z,86.90
2017-11-11T21:40:38.041Z,87.10
2017-11-11T21:43:04.615Z,86.50
2017-11-11T21:45:31.112Z,86.10
2017-11-11T21:47:58.835Z,86.50
2017-11-11T21:50:25.503Z,85.60
2017-11-11T21:52:52.484Z,86.30
2017-11-11T21:55:19.694Z,84.90
2017-11-11T21:57:46.019Z,85.00
2017-11-11T22:00:12.401Z,86.40
2017-11-11T22:02:38.867Z,86.50
2017-11-11T22:05:06.974Z,87.00
2017-11-11T22:07:35.027Z,86.70
2017-11-11T22:10:01.814Z,86.70
2017-11-11T22:12:28.863Z,87.60
2017-11-11T22:14:55.100Z,87.00
2017-11-11T22:17:21.330Z,87.30
2017-11-11T22:19:48.581Z,87.50
2017-11-11T22:22:14.818Z,87.50
2017-11-11T22:24:41.080Z,88.10
2017-11-11T22:27:07.928Z,88.20
2017-11-11T22:29:34.938Z,88.20
2017-11-11T22:32:01.455Z,88.50
2017-11-11T22:34:28.606Z,88.40
2017-11-11T22:36:55.235Z,88.20
2017-11-11T22:39:22.503Z,90.00
2017-11-11T22:41:48.762Z,88.40
2017-11-11T22:44:15.211Z,88.20
2017-11-11T22:46:41.462Z,87.50
2017-11-11T22:49:08.805Z,87.60
2017-11-11T22:51:35.857Z,88.60
2017-11-11T22:54:02.705Z,88.40
2017-11-11T22:56:29.256Z,88.40
2017-11-11T22:58:56.378Z,88.60
2017-11-11T23:01:23.357Z,87.60
2017-11-11T23:03:49.764Z,87.70
2017-11-11T23:06:17.708Z,88.30
2017-11-11T23:08:43.919Z,87.70
2017-11-11T23:11:10.427Z,87.60
2017-11-11T23:13:37.048Z,87.70
2017-11-11T23:16:04.042Z,88.40
2017-11-11T23:18:30.619Z,87.70
2017-11-11T23:20:57.697Z,87.30
2017-11-11T23:23:24.669Z,87.40
2017-11-11T23:25:51.829Z,86.60
2017-11-11T23:28:19.689Z,86.60
2017-11-11T23:30:46.909Z,86.80
2017-11-11T23:33:13.878Z,86.80
2017-11-11T23:35:40.110Z,86.80
2017-11-11T23:38:06.335Z,86.50
2017-11-11T23:40:32.548Z,85.90
2017-11-11T23:42:59.587Z,86.10
2017-11-11T23:45:27.559Z,86.00
2017-11-11T23:47:54.567Z,86.30
2017-11-11T23:50:20.779Z,86.40
2017-11-11T23:52:47.907Z,85.80
2017-11-11T23:55:14.140Z,86.20
2017-11-11T23:57:40.384Z,85.40
